createdAt,value
2022-09-18T00:01:28.856Z,99718.94
2022-09-18T00:03:57.957Z,99711.94
2022-09-18T00:06:27.307Z,99701.38
2022-09-18T00:08:55.427Z,99702.19
2022-09-18T00:11:24.411Z,99705.59
2022-09-18T00:13:51.523Z,99706.38
2022-09-18T00:16:20.217Z,99710.19
2022-09-18T00:18:54.828Z,99717.28
2022-09-18T00:21:26.243Z,99727.78
2022-09-18T00:23:56.025Z,99723.16
2022-09-18T00:26:23.057Z,99722.34
2022-09-18T00:28:52.500Z,99721.59
2022-09-18T00:31:24.525Z,99715.44
2022-09-18T00:33:54.819Z,99732.28
2022-09-18T00:36:22.065Z,99727.78
2022-09-18T00:38:51.955Z,99728.66
2022-09-18T00:41:27.546Z,99722.28
2022-09-18T00:44:14.049Z,99737.31
2022-09-18T00:46:42.310Z,99736.47
2022-09-18T00:49:19.091Z,99745.19
2022-09-18T00:51:48.321Z,99740.50
2022-09-18T00:54:22.651Z,99739.59
2022-09-18T00:56:54.135Z,99751.81
2022-09-18T00:59:25.037Z,99749.16
2022-09-18T01:01:51.852Z,99741.13
2022-09-18T01:04:18.553Z,99744.31
2022-09-18T01:07:17.608Z,99742.53
2022-09-18T01:10:02.268Z,99741.91
2022-09-18T01:12:40.085Z,99750.69
2022-09-18T01:15:22.844Z,99751.84
2022-09-18T01:17:58.473Z,99753.72
2022-09-18T01:20:41.130Z,99752.06
2022-09-18T01:23:17.386Z,99747.75
2022-09-18T01:26:01.576Z,99748.91
2022-09-18T01:28:38.514Z,99752.47
2022-09-18T01:31:09.426Z,99757.00
2022-09-18T01:33:45.308Z,99758.78
2022-09-18T01:36:16.040Z,99765.97
2022-09-18T01:38:48.464Z,99762.25
2022-09-18T01:41:20.983Z,99769.44
2022-09-18T01:43:55.423Z,99769.44
2022-09-18T01:46:22.707Z,99769.72
2022-09-18T01:49:03.311Z,99759.34
2022-09-18T01:51:36.246Z,99768.31
2022-09-18T01:54:12.722Z,99773.81
2022-09-18T01:56:44.663Z,99768.63
2022-09-18T01:59:15.385Z,99776.28
2022-09-18T02:01:43.766Z,99770.00
2022-09-18T02:04:23.358Z,99774.28
2022-09-18T02:07:17.894Z,99759.66
2022-09-18T02:09:44.716Z,99766.72
2022-09-18T02:12:16.881Z,99757.53
2022-09-18T02:14:47.136Z,99758.63
2022-09-18T02:17:37.185Z,99763.69
2022-09-18T02:20:10.341Z,99754.97
2022-09-18T02:22:37.880Z,99752.56
2022-09-18T02:25:08.566Z,99753.19
2022-09-18T02:27:37.150Z,99753.72
2022-09-18T02:30:06.348Z,99747.69
2022-09-18T02:32:36.125Z,99752.34
2022-09-18T02:35:03.218Z,99752.28
2022-09-18T02:37:36.891Z,99758.19
2022-09-18T02:40:10.199Z,99748.56
2022-09-18T02:42:49.501Z,99748.31
2022-09-18T02:45:41.224Z,99754.69
2022-09-18T02:48:19.952Z,99761.47
2022-09-18T02:50:56.544Z,99756.16
2022-09-18T02:53:30.377Z,99750.91
2022-09-18T02:56:08.050Z,99753.28
2022-09-18T02:58:50.886Z,99754.00
2022-09-18T03:01:18.910Z,99756.00
2022-09-18T03:03:45.857Z,99756.81
2022-09-18T03:06:12.490Z,99755.16
2022-09-18T03:08:39.531Z,99769.06
2022-09-18T03:11:06.525Z,99761.97
2022-09-18T03:13:33.205Z,99776.13
2022-09-18T03:15:59.906Z,99762.34
2022-09-18T03:18:26.955Z,99755.72
2022-09-18T03:20:53.524Z,99768.16
2022-09-18T03:23:20.195Z,99766.22
2022-09-18T03:25:51.196Z,99772.38
2022-09-18T03:28:18.258Z,99761.97
2022-09-18T03:30:45.589Z,99773.25
2022-09-18T03:33:12.225Z,99771.50
2022-09-18T03:35:38.830Z,99768.66
2022-09-18T03:38:05.612Z,99770.31
2022-09-18T03:40:32.277Z,99759.78
2022-09-18T03:43:02.339Z,99772.84
2022-09-18T03:45:28.918Z,99777.13
2022-09-18T03:47:55.623Z,99777.38
2022-09-18T03:50:22.231Z,99779.28
2022-09-18T03:52:51.278Z,99774.72
2022-09-18T03:55:21.198Z,99772.28
2022-09-18T03:57:47.808Z,99780.47
2022-09-18T04:00:14.819Z,99778.41
2022-09-18T04:02:41.948Z,99787.47
2022-09-18T04:05:09.412Z,99788.44
2022-09-18T04:07:36.150Z,99792.25
2022-09-18T04:10:03.369Z,99795.56
2022-09-18T04:12:29.990Z,99796.94
2022-09-18T04:14:56.624Z,99800.09
2022-09-18T04:17:23.739Z,99796.59
2022-09-18T04:19:53.601Z,99809.09
2022-09-18T04:22:21.701Z,99795.91
2022-09-18T04:24:50.378Z,99800.31
2022-09-18T04:27:17.199Z,99813.34
2022-09-18T04:29:43.814Z,99805.47
2022-09-18T04:32:10.481Z,99814.41
2022-09-18T04:34:39.954Z,99816.19
2022-09-18T04:37:10.152Z,99824.91
2022-09-18T04:39:37.234Z,99816.19
2022-09-18T04:42:04.811Z,99816.25
2022-09-18T04:44:31.547Z,99816.31
2022-09-18T04:46:58.216Z,99824.84
2022-09-18T04:49:25.001Z,99820.31
2022-09-18T04:51:51.707Z,99825.59
2022-09-18T04:54:18.314Z,99832.75
2022-09-18T04:56:44.965Z,99823.75
2022-09-18T04:59:11.562Z,99835.28
2022-09-18T05:01:38.333Z,99838.72
2022-09-18T05:04:04.992Z,99834.41
2022-09-18T05:06:31.599Z,99835.13
2022-09-18T05:08:58.412Z,99840.56
2022-09-18T05:11:25.006Z,99840.66
2022-09-18T05:13:56.499Z,99840.19
2022-09-18T05:16:24.200Z,99840.19
2022-09-18T05:18:51.957Z,99843.53
2022-09-18T05:21:19.113Z,99838.44
2022-09-18T05:23:46.915Z,99841.06
2022-09-18T05:26:13.786Z,99843.91
2022-09-18T05:28:40.864Z,99845.78
2022-09-18T05:31:07.544Z,99845.78
2022-09-18T05:33:34.305Z,99850.19
2022-09-18T05:36:03.804Z,99860.00
2022-09-18T05:38:31.682Z,99852.88
2022-09-18T05:41:01.924Z,99851.66
2022-09-18T05:43:29.182Z,99850.97
2022-09-18T05:45:56.016Z,99856.00
2022-09-18T05:48:22.800Z,99862.34
2022-09-18T05:50:51.900Z,99864.78
2022-09-18T05:53:20.057Z,99866.56
2022-09-18T05:55:47.049Z,99865.00
2022-09-18T05:58:15.714Z,99864.13
2022-09-18T06:00:44.764Z,99865.84
2022-09-18T06:03:13.527Z,99868.22
2022-09-18T06:05:40.685Z,99860.22
2022-09-18T06:08:12.507Z,99866.19
2022-09-18T06:10:40.345Z,99868.66
2022-09-18T06:13:09.200Z,99855.81
2022-09-18T06:15:36.540Z,99859.09
2022-09-18T06:18:04.212Z,99859.03
2022-09-18T06:20:30.827Z,99865.97
2022-09-18T06:23:01.336Z,99862.00
2022-09-18T06:25:31.609Z,99863.59
2022-09-18T06:28:00.268Z,99873.84
2022-09-18T06:30:28.560Z,99874.75
2022-09-18T06:32:56.942Z,99876.47
2022-09-18T06:35:23.681Z,99866.56
2022-09-18T06:37:50.304Z,99871.28
2022-09-18T06:40:17.022Z,99872.41
2022-09-18T06:42:46.066Z,99866.31
2022-09-18T06:45:12.945Z,99863.44
2022-09-18T06:47:39.631Z,99864.47
2022-09-18T06:50:08.072Z,99866.53
2022-09-18T06:52:34.784Z,99861.94
2022-09-18T06:55:01.475Z,99857.78
2022-09-18T06:57:28.197Z,99865.59
2022-09-18T06:59:54.821Z,99873.06
2022-09-18T07:02:21.727Z,99863.88
2022-09-18T07:04:49.569Z,99871.59
2022-09-18T07:07:16.184Z,99876.19
2022-09-18T07:09:42.856Z,99880.38
2022-09-18T07:12:09.477Z,99882.03
2022-09-18T07:14:36.321Z,99879.78
2022-09-18T07:17:03.291Z,99883.94
2022-09-18T07:19:29.979Z,99884.97
2022-09-18T07:21:56.597Z,99886.19
2022-09-18T07:24:23.233Z,99889.41
2022-09-18T07:26:49.887Z,99883.94
2022-09-18T07:29:16.631Z,99886.97
2022-09-18T07:31:43.309Z,99886.75
2022-09-18T07:34:12.136Z,99890.75
2022-09-18T07:36:38.970Z,99875.63
2022-09-18T07:39:05.611Z,99879.31
2022-09-18T07:41:32.293Z,99877.81
2022-09-18T07:43:59.754Z,99873.53
2022-09-18T07:46:26.475Z,99883.41
2022-09-18T07:48:53.110Z,99883.03
2022-09-18T07:51:23.048Z,99882.09
2022-09-18T07:53:52.728Z,99895.72
2022-09-18T07:56:19.491Z,99887.53
2022-09-18T07:58:46.120Z,99890.84
2022-09-18T08:01:12.781Z,99890.50
2022-09-18T08:03:41.547Z,99882.09
2022-09-18T08:06:11.293Z,99887.94
2022-09-18T08:08:37.954Z,99881.31
2022-09-18T08:11:04.714Z,99888.34
2022-09-18T08:13:32.183Z,99881.06
2022-09-18T08:15:58.990Z,99880.75
2022-09-18T08:18:25.838Z,99881.56
2022-09-18T08:20:56.272Z,99891.84
2022-09-18T08:23:23.100Z,99884.84
2022-09-18T08:25:49.997Z,99886.50
2022-09-18T08:28:19.842Z,99881.34
2022-09-18T08:30:46.593Z,99876.34
2022-09-18T08:33:13.340Z,99874.22
2022-09-18T08:35:40.041Z,99872.03
2022-09-18T08:38:07.932Z,99873.69
2022-09-18T08:41:05.678Z,99886.53
2022-09-18T08:43:52.200Z,99870.06
2022-09-18T08:46:42.476Z,99873.28
2022-09-18T08:49:23.304Z,99871.69
2022-09-18T08:52:06.409Z,99874.00
2022-09-18T08:54:55.518Z,99876.31
2022-09-18T08:57:29.201Z,99872.72
2022-09-18T09:00:10.560Z,99875.75
2022-09-18T09:02:39.940Z,99877.56
2022-09-18T09:05:10.471Z,99874.44
2022-09-18T09:08:20.515Z,99879.81
2022-09-18T09:11:07.387Z,99874.91
2022-09-18T09:13:49.894Z,99871.72
2022-09-18T09:16:24.253Z,99872.72
2022-09-18T09:19:27.002Z,99865.84
2022-09-18T09:22:07.916Z,99884.78
2022-09-18T09:25:02.565Z,99864.91
2022-09-18T09:27:34.739Z,99867.41
2022-09-18T09:30:12.101Z,99867.13
2022-09-18T09:32:49.160Z,99867.50
2022-09-18T09:35:31.934Z,99850.63
2022-09-18T09:38:05.118Z,99858.66
2022-09-18T09:40:50.574Z,99857.22
2022-09-18T09:43:31.519Z,99854.09
2022-09-18T09:46:03.406Z,99857.75
2022-09-18T09:49:03.111Z,99861.06
2022-09-18T09:51:57.447Z,99859.88
2022-09-18T09:54:24.900Z,99857.03
2022-09-18T09:57:17.221Z,99858.56
2022-09-18T10:00:21.259Z,99868.34
2022-09-18T10:03:27.942Z,99870.13
2022-09-18T10:06:24.147Z,99862.25
2022-09-18T10:08:56.998Z,99863.69
2022-09-18T10:11:23.886Z,99872.34
2022-09-18T10:14:03.755Z,99874.78
2022-09-18T10:16:34.598Z,99863.50
2022-09-18T10:19:01.563Z,99862.31
2022-09-18T10:21:29.173Z,99872.09
2022-09-18T10:24:04.002Z,99868.66
2022-09-18T10:26:36.252Z,99875.25
2022-09-18T10:29:03.014Z,99871.41
2022-09-18T10:31:50.236Z,99873.66
2022-09-18T10:34:45.038Z,99890.16
2022-09-18T10:37:28.099Z,99881.41
2022-09-18T10:40:02.216Z,99882.13
2022-09-18T10:42:29.429Z,99883.78
2022-09-18T10:45:01.668Z,99882.41
2022-09-18T10:47:34.028Z,99872.75
2022-09-18T10:50:06.817Z,99872.97
2022-09-18T10:52:36.688Z,99868.50
2022-09-18T10:55:06.334Z,99860.75
2022-09-18T10:57:38.402Z,99864.88
2022-09-18T11:00:25.553Z,99863.22
2022-09-18T11:03:01.218Z,99867.38
2022-09-18T11:05:37.038Z,99872.91
2022-09-18T11:08:14.307Z,99876.94
2022-09-18T11:10:48.048Z,99880.00
2022-09-18T11:13:23.227Z,99876.63
2022-09-18T11:16:02.434Z,99874.56
2022-09-18T11:18:31.435Z,99869.34
2022-09-18T11:21:01.096Z,99868.59
2022-09-18T11:23:33.801Z,99864.94
2022-09-18T11:26:20.200Z,99869.47
2022-09-18T11:29:16.578Z,99857.72
2022-09-18T11:31:50.190Z,99855.47
2022-09-18T11:34:44.301Z,99848.84
2022-09-18T11:37:16.126Z,99851.50
2022-09-18T11:39:45.582Z,99859.53
2022-09-18T11:42:14.251Z,99853.22
2022-09-18T11:44:41.023Z,99853.09
2022-09-18T11:47:13.556Z,99856.69
2022-09-18T11:49:43.537Z,99852.75
2022-09-18T11:52:38.591Z,99838.31
2022-09-18T11:55:14.422Z,99835.31
2022-09-18T11:57:48.487Z,99832.03
2022-09-18T12:00:18.854Z,99836.19
2022-09-18T12:03:19.252Z,99827.34
2022-09-18T12:06:02.239Z,99824.34
2022-09-18T12:08:40.313Z,99821.84
2022-09-18T12:11:12.879Z,99823.22
2022-09-18T12:13:57.539Z,99821.63
2022-09-18T12:16:45.994Z,99801.81
2022-09-18T12:19:33.200Z,99806.28
2022-09-18T12:22:20.058Z,99806.00
2022-09-18T12:24:47.102Z,99809.34
2022-09-18T12:27:36.576Z,99796.81
2022-09-18T12:30:11.958Z,99800.66
2022-09-18T12:33:13.280Z,99811.13
2022-09-18T12:35:58.854Z,99810.50
2022-09-18T12:38:33.551Z,99807.28
2022-09-18T12:41:31.683Z,99807.91
2022-09-18T12:44:16.619Z,99799.56
2022-09-18T12:47:06.386Z,99800.66
2022-09-18T12:49:36.017Z,99801.00
2022-09-18T12:52:10.911Z,99810.91
2022-09-18T12:54:46.566Z,99807.38
2022-09-18T12:57:32.511Z,99801.78
2022-09-18T13:00:18.559Z,99790.72
2022-09-18T13:03:13.886Z,99802.31
2022-09-18T13:05:47.638Z,99793.63
2022-09-18T13:08:24.705Z,99793.63
2022-09-18T13:10:54.834Z,99783.28
2022-09-18T13:13:46.973Z,99783.63
2022-09-18T13:16:35.513Z,99784.13
2022-09-18T13:19:09.156Z,99785.03
2022-09-18T13:21:38.194Z,99788.28
2022-09-18T13:24:06.131Z,99798.09
2022-09-18T13:26:36.671Z,99812.81
2022-09-18T13:29:24.231Z,99832.13
2022-09-18T13:31:53.640Z,99883.56
2022-09-18T13:34:23.899Z,99861.53
2022-09-18T13:36:50.624Z,99847.31
2022-09-18T13:39:28.832Z,99852.81
2022-09-18T13:41:57.902Z,99847.59
2022-09-18T13:44:29.172Z,99850.50
2022-09-18T13:47:14.080Z,99846.38
2022-09-18T13:50:15.952Z,99848.09
2022-09-18T13:52:43.363Z,99844.50
2022-09-18T13:55:13.037Z,99857.13
2022-09-18T13:57:43.885Z,99853.63
2022-09-18T14:00:20.189Z,99850.59
2022-09-18T14:02:48.104Z,99854.78
2022-09-18T14:05:29.572Z,99849.41
2022-09-18T14:08:14.590Z,99852.03
2022-09-18T14:11:04.997Z,99841.44
2022-09-18T14:13:37.851Z,99848.31
2022-09-18T14:16:25.933Z,99838.25
2022-09-18T14:18:56.899Z,99832.38
2022-09-18T14:21:26.827Z,99830.25
2022-09-18T14:24:44.534Z,99829.63
2022-09-18T14:27:30.150Z,99826.03
2022-09-18T14:30:00.003Z,99827.28
2022-09-18T14:32:27.661Z,99819.81
2022-09-18T14:35:22.985Z,99805.34
2022-09-18T14:37:49.670Z,99810.06
2022-09-18T14:40:24.801Z,99806.88
2022-09-18T14:42:52.486Z,99810.00
2022-09-18T14:45:25.020Z,99809.56
2022-09-18T14:47:51.765Z,99799.94
2022-09-18T14:50:29.729Z,99791.91
2022-09-18T14:52:57.966Z,99795.16
2022-09-18T14:55:47.070Z,99788.50
2022-09-18T14:58:16.212Z,99799.34
2022-09-18T15:00:44.004Z,99797.69
2022-09-18T15:03:22.365Z,99795.88
2022-09-18T15:05:52.235Z,99787.44
2022-09-18T15:08:25.958Z,99792.66
2022-09-18T15:10:53.789Z,99785.50
2022-09-18T15:13:21.769Z,99789.88
2022-09-18T15:16:00.957Z,99787.91
2022-09-18T15:18:29.347Z,99791.28
2022-09-18T15:20:58.197Z,99788.69
2022-09-18T15:23:29.094Z,99782.31
2022-09-18T15:25:58.758Z,99780.94
2022-09-18T15:28:27.718Z,99788.09
2022-09-18T15:30:58.120Z,99786.16
2022-09-18T15:33:27.332Z,99780.06
2022-09-18T15:35:55.239Z,99777.25
2022-09-18T15:38:24.921Z,99782.97
2022-09-18T15:40:52.231Z,99782.69
2022-09-18T15:43:31.115Z,99787.88
2022-09-18T15:46:25.167Z,99773.72
2022-09-18T15:48:52.323Z,99785.59
2022-09-18T15:51:28.233Z,99776.09
2022-09-18T15:54:26.944Z,99778.66
2022-09-18T15:56:58.425Z,99777.66
2022-09-18T15:59:39.276Z,99782.25
2022-09-18T16:02:29.307Z,99801.94
2022-09-18T16:04:56.325Z,99799.22
2022-09-18T16:07:27.094Z,99806.97
2022-09-18T16:09:56.489Z,99814.38
2022-09-18T16:12:34.911Z,99835.97
2022-09-18T16:15:04.448Z,99835.06
2022-09-18T16:17:54.053Z,99854.44
2022-09-18T16:20:28.380Z,99841.28
2022-09-18T16:22:58.310Z,99829.09
2022-09-18T16:25:29.884Z,99824.91
2022-09-18T16:27:59.003Z,99811.94
2022-09-18T16:30:27.022Z,99814.63
2022-09-18T16:33:07.146Z,99814.41
2022-09-18T16:35:33.726Z,99807.63
2022-09-18T16:38:00.422Z,99808.94
2022-09-18T16:40:28.121Z,99806.66
2022-09-18T16:42:58.523Z,99794.84
2022-09-18T16:45:27.044Z,99801.19
2022-09-18T16:47:58.752Z,99804.78
2022-09-18T16:50:27.093Z,99795.19
2022-09-18T16:52:54.844Z,99796.25
2022-09-18T16:55:23.536Z,99802.50
2022-09-18T16:57:51.464Z,99808.97
2022-09-18T17:00:18.149Z,99809.78
2022-09-18T17:02:44.922Z,99803.16
2022-09-18T17:05:11.556Z,99802.84
2022-09-18T17:07:38.179Z,99803.13
2022-09-18T17:10:05.379Z,99804.25
2022-09-18T17:12:31.991Z,99805.16
2022-09-18T17:14:58.659Z,99804.47
2022-09-18T17:17:25.334Z,99810.63
2022-09-18T17:19:52.014Z,99817.94
2022-09-18T17:22:22.439Z,99816.41
2022-09-18T17:24:51.291Z,99816.66
2022-09-18T17:27:18.613Z,99819.41
2022-09-18T17:29:45.233Z,99814.22
2022-09-18T17:32:12.570Z,99822.19
2022-09-18T17:34:39.249Z,99827.53
2022-09-18T17:37:06.000Z,99826.63
2022-09-18T17:39:32.619Z,99829.34
2022-09-18T17:41:59.450Z,99832.91
2022-09-18T17:44:27.432Z,99834.13
2022-09-18T17:46:54.471Z,99831.31
2022-09-18T17:49:21.689Z,99828.91
2022-09-18T17:51:48.608Z,99829.88
2022-09-18T17:54:16.942Z,99834.28
2022-09-18T17:56:43.638Z,99833.22
2022-09-18T17:59:11.333Z,99839.34
2022-09-18T18:01:41.948Z,99839.88
2022-09-18T18:04:08.901Z,99828.63
2022-09-18T18:06:36.876Z,99834.75
2022-09-18T18:09:06.234Z,99832.28
2022-09-18T18:11:33.194Z,99831.38
2022-09-18T18:14:00.347Z,99839.03
2022-09-18T18:16:31.102Z,99830.50
2022-09-18T18:19:03.519Z,99842.91
2022-09-18T18:21:31.804Z,99848.31
2022-09-18T18:24:09.020Z,99845.78
2022-09-18T18:26:39.565Z,99856.44
2022-09-18T18:29:10.916Z,99855.75
2022-09-18T18:31:39.741Z,99850.19
2022-09-18T18:34:10.470Z,99856.38
2022-09-18T18:36:38.869Z,99851.22
2022-09-18T18:39:09.783Z,99853.22
2022-09-18T18:41:37.049Z,99858.41
2022-09-18T18:44:05.733Z,99858.72
2022-09-18T18:46:36.374Z,99867.50
2022-09-18T18:49:09.082Z,99857.78
2022-09-18T18:51:38.927Z,99856.28
2022-09-18T18:54:06.014Z,99863.44
2022-09-18T18:56:35.057Z,99859.97
2022-09-18T18:59:03.206Z,99863.53
2022-09-18T19:01:31.079Z,99867.97
2022-09-18T19:04:00.062Z,99866.16
2022-09-18T19:06:30.401Z,99869.88
2022-09-18T19:09:01.615Z,99864.59
2022-09-18T19:11:30.930Z,99869.19
2022-09-18T19:13:57.664Z,99864.91
2022-09-18T19:16:27.910Z,99871.97
2022-09-18T19:18:59.759Z,99869.31
2022-09-18T19:21:29.455Z,99871.25
2022-09-18T19:23:59.170Z,99875.53
2022-09-18T19:26:30.183Z,99876.53
2022-09-18T19:28:58.825Z,99878.34
2022-09-18T19:31:27.050Z,99874.97
2022-09-18T19:33:53.818Z,99875.97
2022-09-18T19:36:23.923Z,99876.91
2022-09-18T19:38:55.547Z,99877.81
2022-09-18T19:41:46.134Z,99876.91
2022-09-18T19:44:34.712Z,99885.66
2022-09-18T19:47:19.535Z,99885.63
2022-09-18T19:49:46.561Z,99880.44
2022-09-18T19:52:18.667Z,99890.19
2022-09-18T19:54:46.769Z,99887.53
2022-09-18T19:57:13.839Z,99892.94
2022-09-18T19:59:40.464Z,99894.69
2022-09-18T20:02:08.661Z,99906.00
2022-09-18T20:04:38.125Z,99897.34
2022-09-18T20:07:07.977Z,99903.63
2022-09-18T20:09:34.600Z,99902.78
2022-09-18T20:12:01.920Z,99904.53
2022-09-18T20:14:28.881Z,99895.84
2022-09-18T20:16:55.773Z,99890.59
2022-09-18T20:19:24.302Z,99896.69
2022-09-18T20:21:51.270Z,99897.63
2022-09-18T20:24:19.370Z,99898.63
2022-09-18T20:26:46.040Z,99900.34
2022-09-18T20:29:16.390Z,99898.63
2022-09-18T20:31:43.430Z,99901.09
2022-09-18T20:34:11.143Z,99904.00
2022-09-18T20:36:38.224Z,99903.06
2022-09-18T20:39:05.056Z,99905.81
2022-09-18T20:41:31.997Z,99904.88
2022-09-18T20:44:05.104Z,99892.06
2022-09-18T20:46:37.130Z,99897.38
2022-09-18T20:49:04.805Z,99893.09
2022-09-18T20:51:34.704Z,99895.75
2022-09-18T20:54:03.431Z,99894.06
2022-09-18T20:56:36.250Z,99898.47
2022-09-18T20:59:05.266Z,99888.00
2022-09-18T21:01:35.232Z,99892.38
2022-09-18T21:04:02.786Z,99896.84
2022-09-18T21:06:33.653Z,99895.09
2022-09-18T21:09:04.284Z,99892.47
2022-09-18T21:11:34.515Z,99894.22
2022-09-18T21:14:03.371Z,99897.72
2022-09-18T21:16:32.665Z,99895.19
2022-09-18T21:19:01.822Z,99899.63
2022-09-18T21:21:30.934Z,99888.38
2022-09-18T21:24:04.215Z,99897.13
2022-09-18T21:26:42.253Z,99896.25
2022-09-18T21:29:23.576Z,99899.75
2022-09-18T21:31:53.090Z,99903.25
2022-09-18T21:34:31.196Z,99894.59
2022-09-18T21:36:59.734Z,99894.50
2022-09-18T21:39:29.870Z,99898.06
2022-09-18T21:41:57.920Z,99897.22
2022-09-18T21:44:28.901Z,99895.38
2022-09-18T21:47:02.015Z,99894.63
2022-09-18T21:49:29.342Z,99891.22
2022-09-18T21:51:57.829Z,99896.53
2022-09-18T21:54:24.857Z,99896.56
2022-09-18T21:56:51.996Z,99899.19
2022-09-18T21:59:25.554Z,99896.50
2022-09-18T22:01:54.770Z,99899.06
2022-09-18T22:04:26.161Z,99902.78
2022-09-18T22:06:55.494Z,99901.06
2022-09-18T22:09:25.157Z,99899.31
2022-09-18T22:11:52.342Z,99902.81
2022-09-18T22:14:28.617Z,99905.53
2022-09-18T22:16:56.457Z,99897.81
2022-09-18T22:19:23.145Z,99911.78
2022-09-18T22:21:51.059Z,99903.97
2022-09-18T22:24:20.164Z,99904.00
2022-09-18T22:26:49.911Z,99897.94
2022-09-18T22:29:20.488Z,99908.41
2022-09-18T22:31:47.845Z,99907.56
2022-09-18T22:34:17.395Z,99914.53
2022-09-18T22:36:45.114Z,99903.25
2022-09-18T22:39:12.785Z,99911.94
2022-09-18T22:41:39.529Z,99911.00
2022-09-18T22:44:09.207Z,99914.44
2022-09-18T22:46:37.484Z,99911.84
2022-09-18T22:49:05.568Z,99922.38
2022-09-18T22:51:32.599Z,99919.81
2022-09-18T22:54:04.705Z,99928.56
2022-09-18T22:56:31.870Z,99926.00
2022-09-18T22:59:02.090Z,99928.63
2022-09-18T23:01:31.951Z,99930.41
2022-09-18T23:03:59.936Z,99931.31
2022-09-18T23:06:30.467Z,99934.81
2022-09-18T23:09:00.404Z,99937.41
2022-09-18T23:11:30.746Z,99936.53
2022-09-18T23:14:00.110Z,99938.34
2022-09-18T23:16:28.787Z,99937.44
2022-09-18T23:18:58.119Z,99934.84
2022-09-18T23:21:27.028Z,99933.09
2022-09-18T23:23:56.830Z,99939.22
2022-09-18T23:26:28.082Z,99940.97
2022-09-18T23:28:57.623Z,99936.59
2022-09-18T23:31:28.263Z,99930.47
2022-09-18T23:33:57.166Z,99935.75
2022-09-18T23:36:26.381Z,99936.56
2022-09-18T23:38:54.834Z,99939.22
2022-09-18T23:41:25.267Z,99936.56
2022-09-18T23:43:53.691Z,99937.47
2022-09-18T23:46:22.003Z,99937.47
2022-09-18T23:48:54.802Z,99937.50
2022-09-18T23:51:29.553Z,99941.88
2022-09-18T23:53:57.185Z,99942.75
2022-09-18T23:56:24.182Z,99946.22
2022-09-18T23:58:54.739Z,99945.34
